sensor_id;sensor_type;location;lat;lon;timestamp;pressure;altitude;pressure_sealevel;temperature;humidity
23361;BME280;11852;50.082;18.554;2023-07-09T00:00:53;99011.0;;;19.73;62.38
23361;BME280;11852;50.082;18.554;2023-07-09T00:01:58;99015.0;;;19.73;62.64
23361;BME280;11852;50.082;18.554;2023-07-09T00:03:02;99011.0;;;19.73;62.86
23361;BME280;11852;50.082;18.554;2023-07-09T00:04:11;99012.0;;;19.68;63.01
23361;BME280;11852;50.082;18.554;2023-07-09T00:05:16;99010.0;;;19.65;63.11
23361;BME280;11852;50.082;18.554;2023-07-09T00:06:20;99011.0;;;19.61;63.27
23361;BME280;11852;50.082;18.554;2023-07-09T00:07:27;99013.0;;;19.58;63.27
23361;BME280;11852;50.082;18.554;2023-07-09T00:08:30;99017.51;;;19.56;63.35
23361;BME280;11852;50.082;18.554;2023-07-09T00:09:35;99018.01;;;19.56;63.51
23361;BME280;11852;50.082;18.554;2023-07-09T00:10:40;99016.5;;;19.55;63.57
23361;BME280;11852;50.082;18.554;2023-07-09T00:11:45;99018.0;;;19.54;63.44
23361;BME280;11852;50.082;18.554;2023-07-09T00:12:50;99015.5;;;19.55;63.28
23361;BME280;11852;50.082;18.554;2023-07-09T00:13:55;99015.0;;;19.5;63.33
23361;BME280;11852;50.082;18.554;2023-07-09T00:15:00;99015.0;;;19.5;63.29
23361;BME280;11852;50.082;18.554;2023-07-09T00:16:10;99016.0;;;19.51;63.21
23361;BME280;11852;50.082;18.554;2023-07-09T00:18:19;99015.5;;;19.47;63.29
23361;BME280;11852;50.082;18.554;2023-07-09T00:19:24;99015.5;;;19.45;63.36
23361;BME280;11852;50.082;18.554;2023-07-09T00:20:29;99015.5;;;19.32;63.7
23361;BME280;11852;50.082;18.554;2023-07-09T00:21:33;99019.0;;;19.39;63.37
23361;BME280;11852;50.082;18.554;2023-07-09T00:22:38;99016.5;;;19.38;63.36
23361;BME280;11852;50.082;18.554;2023-07-09T00:23:43;99018.0;;;19.35;63.52
23361;BME280;11852;50.082;18.554;2023-07-09T00:24:51;99016.5;;;19.26;63.73
23361;BME280;11852;50.082;18.554;2023-07-09T00:25:56;99018.0;;;19.28;63.57
23361;BME280;11852;50.082;18.554;2023-07-09T00:27:01;99017.51;;;19.26;63.68
23361;BME280;11852;50.082;18.554;2023-07-09T00:28:10;99016.5;;;19.32;63.43
23361;BME280;11852;50.082;18.554;2023-07-09T00:29:11;99018.51;;;19.34;63.47
23361;BME280;11852;50.082;18.554;2023-07-09T00:30:17;99018.51;;;19.33;63.6
23361;BME280;11852;50.082;18.554;2023-07-09T00:31:21;99018.01;;;19.37;63.39
23361;BME280;11852;50.082;18.554;2023-07-09T00:32:26;99014.0;;;19.33;63.62
23361;BME280;11852;50.082;18.554;2023-07-09T00:33:31;99011.0;;;19.29;63.69
23361;BME280;11852;50.082;18.554;2023-07-09T00:34:35;99014.5;;;19.38;63.32
23361;BME280;11852;50.082;18.554;2023-07-09T00:35:44;99009.0;;;19.4;63.31
23361;BME280;11852;50.082;18.554;2023-07-09T00:36:48;99009.5;;;19.38;63.32
23361;BME280;11852;50.082;18.554;2023-07-09T00:37:53;99007.49;;;19.36;63.38
23361;BME280;11852;50.082;18.554;2023-07-09T00:38:58;99005.5;;;19.42;63.14
23361;BME280;11852;50.082;18.554;2023-07-09T00:40:03;99003.0;;;19.42;63.13
23361;BME280;11852;50.082;18.554;2023-07-09T00:41:14;99004.51;;;19.35;63.4
23361;BME280;11852;50.082;18.554;2023-07-09T00:42:19;99002.5;;;19.39;63.31
23361;BME280;11852;50.082;18.554;2023-07-09T00:43:23;99001.5;;;19.38;63.26
23361;BME280;11852;50.082;18.554;2023-07-09T00:44:31;99000.5;;;19.42;63.08
23361;BME280;11852;50.082;18.554;2023-07-09T00:45:35;98999.0;;;19.4;63.13
23361;BME280;11852;50.082;18.554;2023-07-09T00:49:01;98998.0;;;19.45;62.93
23361;BME280;11852;50.082;18.554;2023-07-09T00:50:09;98992.0;;;19.47;62.85
23361;BME280;11852;50.082;18.554;2023-07-09T00:51:14;98994.5;;;19.45;62.9
23361;BME280;11852;50.082;18.554;2023-07-09T00:52:24;98993.01;;;19.45;62.89
23361;BME280;11852;50.082;18.554;2023-07-09T00:53:29;98991.5;;;19.43;62.93
23361;BME280;11852;50.082;18.554;2023-07-09T00:54:37;98992.5;;;19.43;62.88
23361;BME280;11852;50.082;18.554;2023-07-09T00:55:41;98992.01;;;19.42;62.94
23361;BME280;11852;50.082;18.554;2023-07-09T00:56:45;98994.0;;;19.37;63.11
23361;BME280;11852;50.082;18.554;2023-07-09T00:57:51;98992.5;;;19.4;62.97
23361;BME280;11852;50.082;18.554;2023-07-09T00:58:55;98998.0;;;19.43;62.88
23361;BME280;11852;50.082;18.554;2023-07-09T01:00:02;98994.99;;;19.32;63.2
23361;BME280;11852;50.082;18.554;2023-07-09T01:01:06;98993.5;;;19.28;63.32
23361;BME280;11852;50.082;18.554;2023-07-09T01:02:10;98996.0;;;19.35;63.08
23361;BME280;11852;50.082;18.554;2023-07-09T01:03:20;98995.49;;;19.39;63.01
23361;BME280;11852;50.082;18.554;2023-07-09T01:04:20;98995.49;;;19.42;63.03
23361;BME280;11852;50.082;18.554;2023-07-09T01:05:24;98994.5;;;19.4;63.05
23361;BME280;11852;50.082;18.554;2023-07-09T01:07:39;98991.0;;;19.42;63.0
23361;BME280;11852;50.082;18.554;2023-07-09T01:08:44;98990.5;;;19.3;63.41
23361;BME280;11852;50.082;18.554;2023-07-09T01:09:49;98990.5;;;19.29;63.49
23361;BME280;11852;50.082;18.554;2023-07-09T01:10:53;98987.0;;;19.3;63.5
23361;BME280;11852;50.082;18.554;2023-07-09T01:11:58;98992.0;;;19.32;63.42
23361;BME280;11852;50.082;18.554;2023-07-09T01:13:03;98988.0;;;19.33;63.48
23361;BME280;11852;50.082;18.554;2023-07-09T01:14:09;98992.5;;;19.33;63.47
23361;BME280;11852;50.082;18.554;2023-07-09T01:15:13;98992.01;;;19.37;63.47
23361;BME280;11852;50.082;18.554;2023-07-09T01:16:18;98993.01;;;19.38;63.51
23361;BME280;11852;50.082;18.554;2023-07-09T01:17:23;98992.5;;;19.39;63.51
23361;BME280;11852;50.082;18.554;2023-07-09T01:18:28;98991.5;;;19.31;63.76
23361;BME280;11852;50.082;18.554;2023-07-09T01:19:41;98994.5;;;19.33;63.71
23361;BME280;11852;50.082;18.554;2023-07-09T01:20:43;98992.5;;;19.31;63.78
23361;BME280;11852;50.082;18.554;2023-07-09T01:21:48;98994.5;;;19.3;63.92
23361;BME280;11852;50.082;18.554;2023-07-09T01:22:54;98994.0;;;19.29;63.94
23361;BME280;11852;50.082;18.554;2023-07-09T01:24:10;98993.5;;;19.32;63.9
23361;BME280;11852;50.082;18.554;2023-07-09T01:25:06;98994.0;;;19.33;63.89
23361;BME280;11852;50.082;18.554;2023-07-09T01:26:17;98992.5;;;19.32;63.79
23361;BME280;11852;50.082;18.554;2023-07-09T01:27:19;98991.0;;;19.3;63.94
23361;BME280;11852;50.082;18.554;2023-07-09T01:28:22;98993.01;;;19.31;63.94
23361;BME280;11852;50.082;18.554;2023-07-09T01:29:30;98991.5;;;19.3;63.99
23361;BME280;11852;50.082;18.554;2023-07-09T01:30:35;98992.51;;;19.31;64.1
23361;BME280;11852;50.082;18.554;2023-07-09T01:31:37;98991.5;;;19.3;64.1
23361;BME280;11852;50.082;18.554;2023-07-09T01:32:42;98995.5;;;19.31;64.04
23361;BME280;11852;50.082;18.554;2023-07-09T01:33:46;98993.5;;;19.31;64.0
23361;BME280;11852;50.082;18.554;2023-07-09T01:34:53;98997.5;;;19.28;64.13
23361;BME280;11852;50.082;18.554;2023-07-09T01:35:57;98997.0;;;19.26;64.34
23361;BME280;11852;50.082;18.554;2023-07-09T01:37:02;98998.5;;;19.26;64.38
23361;BME280;11852;50.082;18.554;2023-07-09T01:38:07;98998.0;;;19.25;64.33
23361;BME280;11852;50.082;18.554;2023-07-09T01:39:12;98998.5;;;19.24;64.38
23361;BME280;11852;50.082;18.554;2023-07-09T01:40:19;98999.0;;;19.21;64.38
23361;BME280;11852;50.082;18.554;2023-07-09T01:41:21;98998.5;;;19.2;64.33
23361;BME280;11852;50.082;18.554;2023-07-09T01:42:26;98999.5;;;19.13;64.6
23361;BME280;11852;50.082;18.554;2023-07-09T01:43:31;98999.0;;;19.08;64.75
23361;BME280;11852;50.082;18.554;2023-07-09T01:44:36;99001.5;;;19.05;64.82
23361;BME280;11852;50.082;18.554;2023-07-09T01:45:41;99000.0;;;19.04;64.84
23361;BME280;11852;50.082;18.554;2023-07-09T01:46:45;99004.0;;;19.02;64.89
23361;BME280;11852;50.082;18.554;2023-07-09T01:47:52;99003.5;;;19.01;65.0
23361;BME280;11852;50.082;18.554;2023-07-09T01:48:57;99001.5;;;19.0;64.99
23361;BME280;11852;50.082;18.554;2023-07-09T01:50:02;99002.0;;;19.01;64.92
23361;BME280;11852;50.082;18.554;2023-07-09T01:51:09;98999.5;;;19.01;65.03
23361;BME280;11852;50.082;18.554;2023-07-09T01:52:13;99003.0;;;19.01;64.94
23361;BME280;11852;50.082;18.554;2023-07-09T01:53:18;99001.5;;;18.99;64.97
23361;BME280;11852;50.082;18.554;2023-07-09T01:54:22;99002.0;;;18.98;64.98
23361;BME280;11852;50.082;18.554;2023-07-09T01:55:27;99003.5;;;18.98;65.13
23361;BME280;11852;50.082;18.554;2023-07-09T01:56:32;99007.5;;;18.95;65.32
23361;BME280;11852;50.082;18.554;2023-07-09T01:57:37;99006.0;;;18.92;65.29
23361;BME280;11852;50.082;18.554;2023-07-09T01:58:41;99005.0;;;18.88;65.42
23361;BME280;11852;50.082;18.554;2023-07-09T01:59:46;99006.0;;;18.88;65.29
23361;BME280;11852;50.082;18.554;2023-07-09T02:00:51;99007.5;;;18.8;65.51
23361;BME280;11852;50.082;18.554;2023-07-09T02:01:56;99008.5;;;18.76;65.48
23361;BME280;11852;50.082;18.554;2023-07-09T02:03:00;99006.5;;;18.76;65.29
23361;BME280;11852;50.082;18.554;2023-07-09T02:04:05;99009.0;;;18.68;65.49
23361;BME280;11852;50.082;18.554;2023-07-09T02:05:11;99008.5;;;18.71;65.37
23361;BME280;11852;50.082;18.554;2023-07-09T02:06:16;99010.5;;;18.83;64.93
23361;BME280;11852;50.082;18.554;2023-07-09T02:07:22;99011.5;;;18.86;64.79
23361;BME280;11852;50.082;18.554;2023-07-09T02:08:26;99016.5;;;18.9;64.77
23361;BME280;11852;50.082;18.554;2023-07-09T02:09:30;99016.5;;;18.9;64.74
23361;BME280;11852;50.082;18.554;2023-07-09T02:10:35;99016.5;;;18.92;64.66
23361;BME280;11852;50.082;18.554;2023-07-09T02:11:41;99019.99;;;18.92;64.71
23361;BME280;11852;50.082;18.554;2023-07-09T02:12:46;99022.0;;;18.92;64.76
23361;BME280;11852;50.082;18.554;2023-07-09T02:13:50;99022.5;;;18.92;64.88
23361;BME280;11852;50.082;18.554;2023-07-09T02:14:55;99023.0;;;18.89;64.95
23361;BME280;11852;50.082;18.554;2023-07-09T02:16:00;99024.0;;;18.89;65.0
23361;BME280;11852;50.082;18.554;2023-07-09T02:17:05;99024.0;;;18.89;64.96
23361;BME280;11852;50.082;18.554;2023-07-09T02:18:10;99021.5;;;18.88;65.09
23361;BME280;11852;50.082;18.554;2023-07-09T02:19:14;99021.5;;;18.88;65.14
23361;BME280;11852;50.082;18.554;2023-07-09T02:20:19;99021.5;;;18.88;65.19
23361;BME280;11852;50.082;18.554;2023-07-09T02:21:25;99022.5;;;18.84;65.31
23361;BME280;11852;50.082;18.554;2023-07-09T02:22:30;99024.0;;;18.76;65.64
23361;BME280;11852;50.082;18.554;2023-07-09T02:23:34;99025.5;;;18.74;65.61
23361;BME280;11852;50.082;18.554;2023-07-09T02:24:39;99022.5;;;18.61;66.01
23361;BME280;11852;50.082;18.554;2023-07-09T02:25:44;99025.0;;;18.66;65.65
23361;BME280;11852;50.082;18.554;2023-07-09T02:26:49;99024.5;;;18.62;65.92
23361;BME280;11852;50.082;18.554;2023-07-09T02:27:54;99025.0;;;18.58;65.96
23361;BME280;11852;50.082;18.554;2023-07-09T02:28:59;99024.0;;;18.6;65.82
23361;BME280;11852;50.082;18.554;2023-07-09T02:30:05;99023.0;;;18.54;66.03
23361;BME280;11852;50.082;18.554;2023-07-09T02:31:09;99025.0;;;18.6;65.71
23361;BME280;11852;50.082;18.554;2023-07-09T02:32:19;99025.0;;;18.6;65.87
23361;BME280;11852;50.082;18.554;2023-07-09T02:33:19;99027.5;;;18.63;65.65
23361;BME280;11852;50.082;18.554;2023-07-09T02:34:26;99026.5;;;18.67;65.57
23361;BME280;11852;50.082;18.554;2023-07-09T02:35:28;99028.5;;;18.67;65.46
23361;BME280;11852;50.082;18.554;2023-07-09T02:36:34;99026.5;;;18.7;65.34
23361;BME280;11852;50.082;18.554;2023-07-09T02:37:39;99027.0;;;18.74;65.35
23361;BME280;11852;50.082;18.554;2023-07-09T02:38:44;99029.0;;;18.74;65.37
23361;BME280;11852;50.082;18.554;2023-07-09T02:39:50;99029.0;;;18.72;65.49
23361;BME280;11852;50.082;18.554;2023-07-09T02:40:55;99028.5;;;18.67;65.65
23361;BME280;11852;50.082;18.554;2023-07-09T02:42:00;99031.5;;;18.66;65.67
23361;BME280;11852;50.082;18.554;2023-07-09T02:43:05;99031.99;;;18.59;66.03
23361;BME280;11852;50.082;18.554;2023-07-09T02:44:11;99030.01;;;18.53;66.29
23361;BME280;11852;50.082;18.554;2023-07-09T02:45:17;99032.0;;;18.55;66.11
23361;BME280;11852;50.082;18.554;2023-07-09T02:46:23;99031.5;;;18.45;66.49
23361;BME280;11852;50.082;18.554;2023-07-09T02:47:29;99032.0;;;18.35;66.71
23361;BME280;11852;50.082;18.554;2023-07-09T02:48:34;99031.5;;;18.44;66.32
23361;BME280;11852;50.082;18.554;2023-07-09T02:49:39;99032.49;;;18.44;66.35
23361;BME280;11852;50.082;18.554;2023-07-09T02:50:44;99032.49;;;18.48;66.22
23361;BME280;11852;50.082;18.554;2023-07-09T02:51:49;99032.49;;;18.48;66.24
23361;BME280;11852;50.082;18.554;2023-07-09T02:52:54;99031.5;;;18.52;66.08
23361;BME280;11852;50.082;18.554;2023-07-09T02:54:00;99031.99;;;18.43;66.34
23361;BME280;11852;50.082;18.554;2023-07-09T02:55:06;99030.0;;;18.45;66.24
23361;BME280;11852;50.082;18.554;2023-07-09T02:56:11;99030.5;;;18.47;66.19
23361;BME280;11852;50.082;18.554;2023-07-09T02:57:16;99030.01;;;18.49;66.15
23361;BME280;11852;50.082;18.554;2023-07-09T02:58:22;99027.0;;;18.44;66.37
23361;BME280;11852;50.082;18.554;2023-07-09T02:59:27;99027.5;;;18.47;66.26
23361;BME280;11852;50.082;18.554;2023-07-09T03:00:32;99024.0;;;18.43;66.5
23361;BME280;11852;50.082;18.554;2023-07-09T03:01:37;99026.0;;;18.37;66.57
23361;BME280;11852;50.082;18.554;2023-07-09T03:02:42;99026.0;;;18.42;66.5
23361;BME280;11852;50.082;18.554;2023-07-09T03:03:46;99025.5;;;18.35;66.85
23361;BME280;11852;50.082;18.554;2023-07-09T03:04:51;99028.0;;;18.4;66.72
23361;BME280;11852;50.082;18.554;2023-07-09T03:05:56;99024.0;;;18.35;66.99
23361;BME280;11852;50.082;18.554;2023-07-09T03:07:02;99025.0;;;18.33;67.03
23361;BME280;11852;50.082;18.554;2023-07-09T03:08:07;99026.5;;;18.26;67.33
23361;BME280;11852;50.082;18.554;2023-07-09T03:09:12;99026.5;;;18.19;67.64
23361;BME280;11852;50.082;18.554;2023-07-09T03:10:16;99030.5;;;18.19;67.66
23361;BME280;11852;50.082;18.554;2023-07-09T03:11:21;99030.01;;;18.2;67.43
23361;BME280;11852;50.082;18.554;2023-07-09T03:12:27;99033.0;;;18.26;67.2
23361;BME280;11852;50.082;18.554;2023-07-09T03:13:32;99031.99;;;18.28;67.01
23361;BME280;11852;50.082;18.554;2023-07-09T03:14:37;99029.51;;;18.24;67.26
23361;BME280;11852;50.082;18.554;2023-07-09T03:15:42;99029.51;;;18.24;67.39
23361;BME280;11852;50.082;18.554;2023-07-09T03:16:47;99031.0;;;18.24;67.46
23361;BME280;11852;50.082;18.554;2023-07-09T03:17:51;99031.5;;;18.31;67.15
23361;BME280;11852;50.082;18.554;2023-07-09T03:18:56;99033.0;;;18.28;67.33
23361;BME280;11852;50.082;18.554;2023-07-09T03:20:01;99034.5;;;18.28;67.34
23361;BME280;11852;50.082;18.554;2023-07-09T03:21:06;99032.99;;;18.26;67.48
23361;BME280;11852;50.082;18.554;2023-07-09T03:22:10;99034.0;;;18.26;67.4
23361;BME280;11852;50.082;18.554;2023-07-09T03:23:15;99035.0;;;18.22;67.71
23361;BME280;11852;50.082;18.554;2023-07-09T03:24:20;99036.5;;;18.17;67.78
23361;BME280;11852;50.082;18.554;2023-07-09T03:25:25;99032.99;;;18.15;67.74
23361;BME280;11852;50.082;18.554;2023-07-09T03:26:30;99036.0;;;18.2;67.52
23361;BME280;11852;50.082;18.554;2023-07-09T03:27:35;99038.5;;;18.17;67.81
23361;BME280;11852;50.082;18.554;2023-07-09T03:28:39;99042.01;;;18.06;68.29
23361;BME280;11852;50.082;18.554;2023-07-09T03:29:45;99039.5;;;18.1;68.03
23361;BME280;11852;50.082;18.554;2023-07-09T03:30:52;99041.0;;;18.11;67.89
23361;BME280;11852;50.082;18.554;2023-07-09T03:31:55;99044.0;;;18.1;67.89
23361;BME280;11852;50.082;18.554;2023-07-09T03:33:00;99042.51;;;18.1;67.74
23361;BME280;11852;50.082;18.554;2023-07-09T03:34:04;99042.01;;;18.14;67.59
23361;BME280;11852;50.082;18.554;2023-07-09T03:35:09;99040.5;;;18.14;67.44
23361;BME280;11852;50.082;18.554;2023-07-09T03:36:14;99040.0;;;18.24;67.29
23361;BME280;11852;50.082;18.554;2023-07-09T03:37:19;99042.0;;;18.19;67.61
23361;BME280;11852;50.082;18.554;2023-07-09T03:38:24;99037.5;;;18.24;67.37
23361;BME280;11852;50.082;18.554;2023-07-09T03:39:30;99042.01;;;18.3;67.19
23361;BME280;11852;50.082;18.554;2023-07-09T03:40:35;99038.5;;;18.35;67.18
23361;BME280;11852;50.082;18.554;2023-07-09T03:41:39;99041.5;;;18.41;67.01
23361;BME280;11852;50.082;18.554;2023-07-09T03:42:45;99041.5;;;18.42;67.02
23361;BME280;11852;50.082;18.554;2023-07-09T03:43:50;99043.5;;;18.41;67.1
23361;BME280;11852;50.082;18.554;2023-07-09T03:44:55;99043.01;;;18.42;67.1
23361;BME280;11852;50.082;18.554;2023-07-09T03:46:00;99042.51;;;18.42;67.1
23361;BME280;11852;50.082;18.554;2023-07-09T03:47:05;99042.51;;;18.42;67.12
23361;BME280;11852;50.082;18.554;2023-07-09T03:48:09;99042.01;;;18.35;67.29
23361;BME280;11852;50.082;18.554;2023-07-09T03:49:14;99042.5;;;18.35;67.25
23361;BME280;11852;50.082;18.554;2023-07-09T03:50:19;99042.5;;;18.4;67.16
23361;BME280;11852;50.082;18.554;2023-07-09T03:51:24;99040.5;;;18.38;67.07
23361;BME280;11852;50.082;18.554;2023-07-09T03:52:28;99038.5;;;18.36;67.1
23361;BME280;11852;50.082;18.554;2023-07-09T03:53:33;99041.0;;;18.44;66.84
23361;BME280;11852;50.082;18.554;2023-07-09T03:54:39;99039.0;;;18.47;66.86
23361;BME280;11852;50.082;18.554;2023-07-09T03:55:51;99040.0;;;18.46;66.86
23361;BME280;11852;50.082;18.554;2023-07-09T03:56:51;99039.0;;;18.52;66.7
23361;BME280;11852;50.082;18.554;2023-07-09T03:57:56;99039.5;;;18.52;66.76
23361;BME280;11852;50.082;18.554;2023-07-09T03:59:02;99041.5;;;18.52;66.85
23361;BME280;11852;50.082;18.554;2023-07-09T04:00:07;99038.0;;;18.56;66.81
23361;BME280;11852;50.082;18.554;2023-07-09T04:01:12;99041.5;;;18.6;66.68
23361;BME280;11852;50.082;18.554;2023-07-09T04:02:16;99042.01;;;18.65;66.49
23361;BME280;11852;50.082;18.554;2023-07-09T04:03:22;99044.0;;;18.67;66.44
23361;BME280;11852;50.082;18.554;2023-07-09T04:04:27;99043.5;;;18.69;66.45
23361;BME280;11852;50.082;18.554;2023-07-09T04:05:32;99044.0;;;18.64;66.72
23361;BME280;11852;50.082;18.554;2023-07-09T04:06:36;99045.0;;;18.66;66.68
23361;BME280;11852;50.082;18.554;2023-07-09T04:07:41;99043.5;;;18.65;66.78
23361;BME280;11852;50.082;18.554;2023-07-09T04:08:46;99046.5;;;18.57;67.06
23361;BME280;11852;50.082;18.554;2023-07-09T04:09:51;99044.5;;;18.56;67.04
23361;BME280;11852;50.082;18.554;2023-07-09T04:10:58;99046.0;;;18.61;66.83
23361;BME280;11852;50.082;18.554;2023-07-09T04:12:04;99047.0;;;18.66;66.69
23361;BME280;11852;50.082;18.554;2023-07-09T04:13:09;99047.0;;;18.66;66.71
23361;BME280;11852;50.082;18.554;2023-07-09T04:14:15;99045.49;;;18.71;66.55
23361;BME280;11852;50.082;18.554;2023-07-09T04:15:21;99048.5;;;18.67;66.77
23361;BME280;11852;50.082;18.554;2023-07-09T04:16:26;99047.5;;;18.71;66.65
23361;BME280;11852;50.082;18.554;2023-07-09T04:17:31;99048.5;;;18.72;66.57
23361;BME280;11852;50.082;18.554;2023-07-09T04:18:36;99047.5;;;18.68;66.5
23361;BME280;11852;50.082;18.554;2023-07-09T04:19:40;99050.0;;;18.69;66.63
23361;BME280;11852;50.082;18.554;2023-07-09T04:20:49;99052.0;;;18.7;66.51
23361;BME280;11852;50.082;18.554;2023-07-09T04:21:53;99050.0;;;18.76;66.31
23361;BME280;11852;50.082;18.554;2023-07-09T04:22:59;99052.5;;;18.81;66.18
23361;BME280;11852;50.082;18.554;2023-07-09T04:24:05;99048.5;;;18.83;66.21
23361;BME280;11852;50.082;18.554;2023-07-09T04:25:10;99047.5;;;18.74;66.61
23361;BME280;11852;50.082;18.554;2023-07-09T04:26:15;99049.5;;;18.8;66.29
23361;BME280;11852;50.082;18.554;2023-07-09T04:27:20;99049.5;;;18.81;66.22
23361;BME280;11852;50.082;18.554;2023-07-09T04:28:25;99050.5;;;18.88;65.91
23361;BME280;11852;50.082;18.554;2023-07-09T04:29:31;99053.0;;;18.88;65.85
23361;BME280;11852;50.082;18.554;2023-07-09T04:30:36;99053.0;;;18.85;66.06
23361;BME280;11852;50.082;18.554;2023-07-09T04:31:41;99051.5;;;18.88;65.76
23361;BME280;11852;50.082;18.554;2023-07-09T04:32:46;99053.5;;;18.81;65.94
23361;BME280;11852;50.082;18.554;2023-07-09T04:33:51;99051.5;;;18.82;65.83
23361;BME280;11852;50.082;18.554;2023-07-09T04:34:55;99053.5;;;18.86;65.68
23361;BME280;11852;50.082;18.554;2023-07-09T04:36:00;99051.5;;;18.9;65.68
23361;BME280;11852;50.082;18.554;2023-07-09T04:37:09;99051.0;;;18.84;66.01
23361;BME280;11852;50.082;18.554;2023-07-09T04:38:13;99051.5;;;18.83;66.09
23361;BME280;11852;50.082;18.554;2023-07-09T04:39:17;99053.5;;;18.93;65.64
23361;BME280;11852;50.082;18.554;2023-07-09T04:40:22;99053.0;;;18.95;65.44
23361;BME280;11852;50.082;18.554;2023-07-09T04:41:27;99053.0;;;18.88;65.67
23361;BME280;11852;50.082;18.554;2023-07-09T04:42:32;99052.5;;;18.96;65.08
23361;BME280;11852;50.082;18.554;2023-07-09T04:43:36;99053.0;;;18.99;65.04
23361;BME280;11852;50.082;18.554;2023-07-09T04:44:43;99051.0;;;19.03;65.07
23361;BME280;11852;50.082;18.554;2023-07-09T04:45:47;99053.5;;;19.08;64.81
23361;BME280;11852;50.082;18.554;2023-07-09T04:46:52;99053.0;;;19.13;64.73
23361;BME280;11852;50.082;18.554;2023-07-09T04:47:57;99050.5;;;19.15;64.69
23361;BME280;11852;50.082;18.554;2023-07-09T04:49:02;99051.5;;;19.16;64.72
23361;BME280;11852;50.082;18.554;2023-07-09T04:50:07;99051.0;;;19.22;64.58
23361;BME280;11852;50.082;18.554;2023-07-09T04:51:12;99053.5;;;19.26;64.73
23361;BME280;11852;50.082;18.554;2023-07-09T04:52:16;99055.0;;;19.31;64.38
23361;BME280;11852;50.082;18.554;2023-07-09T04:53:22;99054.0;;;19.29;64.69
23361;BME280;11852;50.082;18.554;2023-07-09T04:54:28;99053.5;;;19.28;64.66
23361;BME280;11852;50.082;18.554;2023-07-09T04:55:33;99055.5;;;19.33;64.44
23361;BME280;11852;50.082;18.554;2023-07-09T04:56:39;99057.5;;;19.45;64.11
23361;BME280;11852;50.082;18.554;2023-07-09T04:57:43;99057.0;;;19.35;64.48
23361;BME280;11852;50.082;18.554;2023-07-09T04:58:48;99055.51;;;19.38;64.36
23361;BME280;11852;50.082;18.554;2023-07-09T04:59:53;99057.0;;;19.45;64.15
23361;BME280;11852;50.082;18.554;2023-07-09T05:00:58;99056.0;;;19.49;64.14
23361;BME280;11852;50.082;18.554;2023-07-09T05:02:03;99054.0;;;19.57;63.16
23361;BME280;11852;50.082;18.554;2023-07-09T05:03:07;99056.99;;;19.61;63.29
23361;BME280;11852;50.082;18.554;2023-07-09T05:04:12;99054.5;;;19.69;63.08
23361;BME280;11852;50.082;18.554;2023-07-09T05:05:17;99056.0;;;19.69;63.27
23361;BME280;11852;50.082;18.554;2023-07-09T05:06:23;99056.0;;;19.73;63.47
23361;BME280;11852;50.082;18.554;2023-07-09T05:07:28;99057.5;;;19.74;63.67
23361;BME280;11852;50.082;18.554;2023-07-09T05:08:32;99056.0;;;19.78;63.38
23361;BME280;11852;50.082;18.554;2023-07-09T05:09:37;99057.0;;;19.78;63.22
23361;BME280;11852;50.082;18.554;2023-07-09T05:10:42;99056.0;;;19.83;63.03
23361;BME280;11852;50.082;18.554;2023-07-09T05:11:47;99055.5;;;19.8;63.09
23361;BME280;11852;50.082;18.554;2023-07-09T05:12:54;99058.5;;;19.83;62.82
23361;BME280;11852;50.082;18.554;2023-07-09T05:13:58;99060.0;;;19.92;62.22
23361;BME280;11852;50.082;18.554;2023-07-09T05:15:03;99057.0;;;19.92;62.61
23361;BME280;11852;50.082;18.554;2023-07-09T05:16:08;99059.5;;;19.94;62.74
23361;BME280;11852;50.082;18.554;2023-07-09T05:17:14;99059.5;;;20.01;62.6
23361;BME280;11852;50.082;18.554;2023-07-09T05:18:19;99059.0;;;20.02;62.81
23361;BME280;11852;50.082;18.554;2023-07-09T05:19:24;99061.0;;;20.11;62.65
23361;BME280;11852;50.082;18.554;2023-07-09T05:20:29;99059.5;;;20.13;62.47
23361;BME280;11852;50.082;18.554;2023-07-09T05:21:34;99060.0;;;20.18;62.32
23361;BME280;11852;50.082;18.554;2023-07-09T05:22:39;99060.0;;;20.18;62.29
23361;BME280;11852;50.082;18.554;2023-07-09T05:23:44;99057.5;;;20.24;62.03
23361;BME280;11852;50.082;18.554;2023-07-09T05:24:48;99057.0;;;20.28;61.94
23361;BME280;11852;50.082;18.554;2023-07-09T05:25:59;99060.5;;;20.36;61.76
23361;BME280;11852;50.082;18.554;2023-07-09T05:27:01;99058.0;;;20.35;61.92
23361;BME280;11852;50.082;18.554;2023-07-09T05:28:06;99062.0;;;20.4;61.72
23361;BME280;11852;50.082;18.554;2023-07-09T05:29:11;99063.0;;;20.52;61.28
23361;BME280;11852;50.082;18.554;2023-07-09T05:30:15;99064.0;;;20.57;61.42
23361;BME280;11852;50.082;18.554;2023-07-09T05:31:22;99067.5;;;20.6;61.42
23361;BME280;11852;50.082;18.554;2023-07-09T05:32:26;99068.5;;;20.64;60.56
23361;BME280;11852;50.082;18.554;2023-07-09T05:33:31;99071.0;;;20.61;60.45
23361;BME280;11852;50.082;18.554;2023-07-09T05:34:37;99068.0;;;20.71;60.34
23361;BME280;11852;50.082;18.554;2023-07-09T05:35:42;99070.49;;;20.76;60.7
23361;BME280;11852;50.082;18.554;2023-07-09T05:36:47;99069.0;;;20.79;59.9
23361;BME280;11852;50.082;18.554;2023-07-09T05:37:54;99069.5;;;20.8;59.9
23361;BME280;11852;50.082;18.554;2023-07-09T05:38:59;99071.0;;;20.81;59.96
23361;BME280;11852;50.082;18.554;2023-07-09T05:40:05;99067.0;;;20.91;60.24
23361;BME280;11852;50.082;18.554;2023-07-09T05:41:09;99067.5;;;20.93;59.86
23361;BME280;11852;50.082;18.554;2023-07-09T05:42:14;99066.0;;;20.97;59.93
23361;BME280;11852;50.082;18.554;2023-07-09T05:43:19;99069.0;;;21.01;59.62
23361;BME280;11852;50.082;18.554;2023-07-09T05:44:24;99070.0;;;21.09;59.32
23361;BME280;11852;50.082;18.554;2023-07-09T05:45:28;99069.0;;;21.17;59.35
23361;BME280;11852;50.082;18.554;2023-07-09T05:46:34;99069.0;;;21.23;60.17
23361;BME280;11852;50.082;18.554;2023-07-09T05:47:39;99069.99;;;21.24;59.3
23361;BME280;11852;50.082;18.554;2023-07-09T05:48:43;99072.0;;;21.31;59.35
23361;BME280;11852;50.082;18.554;2023-07-09T05:49:48;99073.0;;;21.29;59.25